sensor_id;sensor_type;location;lat;lon;timestamp;temperature;humidity
67165;SHT31;54093;50.014;19.984;2024-03-23T00:54:52;10.97;63.99
67165;SHT31;54093;50.014;19.984;2024-03-23T01:04:13;10.90;65.19
67165;SHT31;54093;50.014;19.984;2024-03-23T01:13:34;10.90;64.52
67165;SHT31;54093;50.014;19.984;2024-03-23T01:22:56;10.85;66.46
67165;SHT31;54093;50.014;19.984;2024-03-23T01:32:17;10.70;68.17
67165;SHT31;54093;50.014;19.984;2024-03-23T01:41:40;10.59;68.92
67165;SHT31;54093;50.014;19.984;2024-03-23T01:51:03;10.50;69.01
67165;SHT31;54093;50.014;19.984;2024-03-23T02:00:25;10.39;70.10
67165;SHT31;54093;50.014;19.984;2024-03-23T02:09:49;10.32;70.77
67165;SHT31;54093;50.014;19.984;2024-03-23T02:19:10;10.24;71.50
67165;SHT31;54093;50.014;19.984;2024-03-23T02:28:32;10.21;71.73
67165;SHT31;54093;50.014;19.984;2024-03-23T02:37:53;10.16;72.81
67165;SHT31;54093;50.014;19.984;2024-03-23T02:47:20;9.98;73.98
67165;SHT31;54093;50.014;19.984;2024-03-23T02:56:47;9.95;73.66
67165;SHT31;54093;50.014;19.984;2024-03-23T03:06:08;9.94;74.31
67165;SHT31;54093;50.014;19.984;2024-03-23T03:15:29;9.94;73.91
67165;SHT31;54093;50.014;19.984;2024-03-23T03:24:50;9.94;73.75
67165;SHT31;54093;50.014;19.984;2024-03-23T03:34:11;9.85;74.19
67165;SHT31;54093;50.014;19.984;2024-03-23T03:43:32;9.69;75.34
67165;SHT31;54093;50.014;19.984;2024-03-23T03:52:54;9.66;74.11
67165;SHT31;54093;50.014;19.984;2024-03-23T04:02:15;9.67;74.22
67165;SHT31;54093;50.014;19.984;2024-03-23T04:11:36;9.56;73.84
67165;SHT31;54093;50.014;19.984;2024-03-23T04:20:57;9.56;74.43
67165;SHT31;54093;50.014;19.984;2024-03-23T04:30:31;9.51;74.62
67165;SHT31;54093;50.014;19.984;2024-03-23T04:39:52;9.57;75.37
67165;SHT31;54093;50.014;19.984;2024-03-23T04:49:14;9.58;75.15
67165;SHT31;54093;50.014;19.984;2024-03-23T04:58:37;9.63;75.90
67165;SHT31;54093;50.014;19.984;2024-03-23T05:08:00;9.49;76.19
67165;SHT31;54093;50.014;19.984;2024-03-23T05:17:21;9.57;76.14
67165;SHT31;54093;50.014;19.984;2024-03-23T05:26:42;9.64;75.43
67165;SHT31;54093;50.014;19.984;2024-03-23T05:36:04;9.57;76.69
67165;SHT31;54093;50.014;19.984;2024-03-23T05:45:25;9.58;76.65
67165;SHT31;54093;50.014;19.984;2024-03-23T05:54:46;9.61;76.14
67165;SHT31;54093;50.014;19.984;2024-03-23T06:04:07;9.66;76.29
67165;SHT31;54093;50.014;19.984;2024-03-23T06:13:28;9.58;77.76
67165;SHT31;54093;50.014;19.984;2024-03-23T06:22:51;9.67;77.38
67165;SHT31;54093;50.014;19.984;2024-03-23T06:32:12;9.77;76.85
67165;SHT31;54093;50.014;19.984;2024-03-23T06:41:33;9.84;77.20
67165;SHT31;54093;50.014;19.984;2024-03-23T06:50:57;9.91;76.86
67165;SHT31;54093;50.014;19.984;2024-03-23T07:00:19;10.02;76.45
67165;SHT31;54093;50.014;19.984;2024-03-23T07:09:40;10.16;76.67
67165;SHT31;54093;50.014;19.984;2024-03-23T07:19:01;10.34;76.39
67165;SHT31;54093;50.014;19.984;2024-03-23T07:28:23;10.55;75.41
67165;SHT31;54093;50.014;19.984;2024-03-23T07:37:44;10.77;73.71
67165;SHT31;54093;50.014;19.984;2024-03-23T07:47:08;11.04;73.81
67165;SHT31;54093;50.014;19.984;2024-03-23T07:56:29;11.31;73.63
67165;SHT31;54093;50.014;19.984;2024-03-23T08:05:51;11.65;72.33
67165;SHT31;54093;50.014;19.984;2024-03-23T08:15:12;11.91;71.90
67165;SHT31;54093;50.014;19.984;2024-03-23T08:24:34;12.36;72.38
67165;SHT31;54093;50.014;19.984;2024-03-23T08:33:55;12.59;70.01
67165;SHT31;54093;50.014;19.984;2024-03-23T08:43:16;12.75;69.17
67165;SHT31;54093;50.014;19.984;2024-03-23T08:52:38;13.00;69.19
67165;SHT31;54093;50.014;19.984;2024-03-23T09:01:59;13.17;68.75
67165;SHT31;54093;50.014;19.984;2024-03-23T09:11:20;13.84;73.87
67165;SHT31;54093;50.014;19.984;2024-03-23T09:20:42;14.50;65.31
67165;SHT31;54093;50.014;19.984;2024-03-23T09:30:03;14.53;65.70
67165;SHT31;54093;50.014;19.984;2024-03-23T09:39:26;14.74;61.20
67165;SHT31;54093;50.014;19.984;2024-03-23T09:48:47;15.28;61.63
67165;SHT31;54093;50.014;19.984;2024-03-23T09:58:12;15.65;51.11
67165;SHT31;54093;50.014;19.984;2024-03-23T10:07:33;15.90;48.20
67165;SHT31;54093;50.014;19.984;2024-03-23T10:16:54;16.31;46.61
67165;SHT31;54093;50.014;19.984;2024-03-23T10:26:23;16.82;44.73
67165;SHT31;54093;50.014;19.984;2024-03-23T10:35:47;17.44;43.24
67165;SHT31;54093;50.014;19.984;2024-03-23T10:45:08;18.09;40.95
67165;SHT31;54093;50.014;19.984;2024-03-23T10:54:30;18.23;39.71
67165;SHT31;54093;50.014;19.984;2024-03-23T11:03:51;18.37;38.52
67165;SHT31;54093;50.014;19.984;2024-03-23T11:13:22;18.50;39.75
67165;SHT31;54093;50.014;19.984;2024-03-23T11:22:45;18.69;40.80
67165;SHT31;54093;50.014;19.984;2024-03-23T11:32:10;19.27;37.91
67165;SHT31;54093;50.014;19.984;2024-03-23T11:41:31;19.49;37.44
67165;SHT31;54093;50.014;19.984;2024-03-23T11:50:56;19.53;38.94
67165;SHT31;54093;50.014;19.984;2024-03-23T12:00:24;19.54;37.69
67165;SHT31;54093;50.014;19.984;2024-03-23T12:09:46;20.00;37.12
67165;SHT31;54093;50.014;19.984;2024-03-23T12:19:07;20.53;37.04
67165;SHT31;54093;50.014;19.984;2024-03-23T12:28:28;21.32;35.05
67165;SHT31;54093;50.014;19.984;2024-03-23T12:37:49;21.38;33.79
67165;SHT31;54093;50.014;19.984;2024-03-23T12:47:30;20.94;34.65
67165;SHT31;54093;50.014;19.984;2024-03-23T12:56:51;21.52;33.33
67165;SHT31;54093;50.014;19.984;2024-03-23T13:06:12;22.10;34.01
67165;SHT31;54093;50.014;19.984;2024-03-23T13:15:33;22.34;34.87
67165;SHT31;54093;50.014;19.984;2024-03-23T13:24:54;22.61;34.81
67165;SHT31;54093;50.014;19.984;2024-03-23T13:34:15;22.12;35.49
67165;SHT31;54093;50.014;19.984;2024-03-23T13:43:37;22.05;34.48
67165;SHT31;54093;50.014;19.984;2024-03-23T13:52:58;22.36;34.46
67165;SHT31;54093;50.014;19.984;2024-03-23T14:02:19;22.91;34.11
67165;SHT31;54093;50.014;19.984;2024-03-23T14:11:41;22.95;29.82
67165;SHT31;54093;50.014;19.984;2024-03-23T14:21:04;21.97;30.55
67165;SHT31;54093;50.014;19.984;2024-03-23T14:30:26;21.20;31.14
67165;SHT31;54093;50.014;19.984;2024-03-23T14:39:46;20.55;32.40
67165;SHT31;54093;50.014;19.984;2024-03-23T14:49:08;18.16;54.57
67165;SHT31;54093;50.014;19.984;2024-03-23T14:58:29;16.18;59.12
67165;SHT31;54093;50.014;19.984;2024-03-23T15:07:50;15.48;60.96
67165;SHT31;54093;50.014;19.984;2024-03-23T15:17:11;14.76;62.62
67165;SHT31;54093;50.014;19.984;2024-03-23T15:26:32;14.23;64.73
67165;SHT31;54093;50.014;19.984;2024-03-23T15:35:53;13.77;65.98
67165;SHT31;54093;50.014;19.984;2024-03-23T15:45:15;13.30;68.87
67165;SHT31;54093;50.014;19.984;2024-03-23T15:54:36;12.99;71.02
67165;SHT31;54093;50.014;19.984;2024-03-23T16:03:57;12.61;73.30
67165;SHT31;54093;50.014;19.984;2024-03-23T16:13:19;12.33;74.63
67165;SHT31;54093;50.014;19.984;2024-03-23T16:22:40;12.07;73.80
67165;SHT31;54093;50.014;19.984;2024-03-23T16:32:01;11.90;72.50
67165;SHT31;54093;50.014;19.984;2024-03-23T16:41:22;11.78;72.56
67165;SHT31;54093;50.014;19.984;2024-03-23T16:50:43;11.70;71.09
67165;SHT31;54093;50.014;19.984;2024-03-23T17:00:04;11.61;70.25
67165;SHT31;54093;50.014;19.984;2024-03-23T17:09:27;11.57;69.47
67165;SHT31;54093;50.014;19.984;2024-03-23T17:18:48;11.72;68.67
67165;SHT31;54093;50.014;19.984;2024-03-23T17:28:11;11.63;69.14
67165;SHT31;54093;50.014;19.984;2024-03-23T17:37:33;11.45;70.06
67165;SHT31;54093;50.014;19.984;2024-03-23T17:46:54;11.22;71.66
67165;SHT31;54093;50.014;19.984;2024-03-23T17:56:16;10.80;72.20
67165;SHT31;54093;50.014;19.984;2024-03-23T18:05:37;10.14;72.81
67165;SHT31;54093;50.014;19.984;2024-03-23T18:14:58;9.60;72.67
67165;SHT31;54093;50.014;19.984;2024-03-23T18:24:21;9.18;73.71
67165;SHT31;54093;50.014;19.984;2024-03-23T18:33:42;9.11;75.47
67165;SHT31;54093;50.014;19.984;2024-03-23T18:43:03;9.28;74.09
67165;SHT31;54093;50.014;19.984;2024-03-23T18:52:24;8.92;75.24
67165;SHT31;54093;50.014;19.984;2024-03-23T19:01:45;8.58;76.45
67165;SHT31;54093;50.014;19.984;2024-03-23T19:11:06;8.43;76.43
67165;SHT31;54093;50.014;19.984;2024-03-23T19:20:28;8.28;76.06
67165;SHT31;54093;50.014;19.984;2024-03-23T19:29:49;8.07;75.50
67165;SHT31;54093;50.014;19.984;2024-03-23T19:39:10;7.91;75.93
67165;SHT31;54093;50.014;19.984;2024-03-23T19:48:33;7.99;74.80
67165;SHT31;54093;50.014;19.984;2024-03-23T19:57:54;7.81;75.13
67165;SHT31;54093;50.014;19.984;2024-03-23T20:07:15;7.77;75.99
67165;SHT31;54093;50.014;19.984;2024-03-23T20:16:36;7.62;75.16
67165;SHT31;54093;50.014;19.984;2024-03-23T20:26:00;7.64;75.00
67165;SHT31;54093;50.014;19.984;2024-03-23T20:35:21;7.48;73.96
67165;SHT31;54093;50.014;19.984;2024-03-23T20:44:42;7.41;73.81
67165;SHT31;54093;50.014;19.984;2024-03-23T20:54:04;7.37;73.24
67165;SHT31;54093;50.014;19.984;2024-03-23T21:03:25;7.24;73.51
67165;SHT31;54093;50.014;19.984;2024-03-23T21:12:46;7.00;74.10
67165;SHT31;54093;50.014;19.984;2024-03-23T21:22:07;6.92;74.65
67165;SHT31;54093;50.014;19.984;2024-03-23T21:31:29;6.93;74.17
67165;SHT31;54093;50.014;19.984;2024-03-23T21:40:57;6.85;72.36
67165;SHT31;54093;50.014;19.984;2024-03-23T21:50:21;6.74;72.14
67165;SHT31;54093;50.014;19.984;2024-03-23T21:59:42;6.61;71.71
67165;SHT31;54093;50.014;19.984;2024-03-23T22:09:03;6.54;70.69
67165;SHT31;54093;50.014;19.984;2024-03-23T22:18:24;6.49;69.92
67165;SHT31;54093;50.014;19.984;2024-03-23T22:27:46;6.42;69.55
67165;SHT31;54093;50.014;19.984;2024-03-23T22:37:09;6.30;68.89
67165;SHT31;54093;50.014;19.984;2024-03-23T22:46:30;6.21;67.93
67165;SHT31;54093;50.014;19.984;2024-03-23T22:55:53;6.18;70.14
67165;SHT31;54093;50.014;19.984;2024-03-23T23:05:14;6.14;68.59
67165;SHT31;54093;50.014;19.984;2024-03-23T23:14:35;6.06;69.65
67165;SHT31;54093;50.014;19.984;2024-03-23T23:23:56;6.10;69.09
67165;SHT31;54093;50.014;19.984;2024-03-23T23:33:17;6.10;69.26
67165;SHT31;54093;50.014;19.984;2024-03-23T23:42:38;5.97;70.31
67165;SHT31;54093;50.014;19.984;2024-03-23T23:51:59;5.95;69.03
